Woodbine, Iowa
Current Conditions -  °F | °C
As of 4:35 AM on Wednesday 22 Oct 2014 (Local Time) from KHNR Reporting Station
Overcast Overcast  
Wind Chill: 11°   Ceiling: 4000
Heat Index: 11°   Visibility: 10mi
Dew Point:   Wind: 10mph
Humidity: 76%   Direction: 150°SSE
Pressure: 30.16"   Gusts: 16mph
Location:  41.74°N, 95.7°W
Report Text: KHNR 220935Z AUTO 15009G14KT 10SM BKN040 BKN046 OVC070 11/07 A3016 RMK AO2
Loading
Personal Weather Stations






























Interactive Weather Map
Tropical Storm Tracking
New forecast layout! Learn more

10-Day Weather Forecast

Advertisements
Track Severe Weather on mobile